Warwick, Georgia
Current Conditions -  °F | °C
As of 7:15 PM on Monday 24 Nov 2014 (Local Time) from KCKF Reporting Station
Broken Clouds Broken Clouds  
Wind Chill: 70°   Ceiling: 12000
Heat Index: 70°   Visibility: 7mi
Dew Point: 68°   Wind: 6mph
Humidity: 92%   Direction: 200°SSW
Pressure: 29.91"   Gusts: NA
Location:  31.83°N, 83.92°W
Report Text: KCKF 250015Z AUTO 20005KT 7SM SCT008 BKN120 21/20 A2991 RMK AO2 LTG DSNT E T02120199
Loading
Personal Weather Stations






























Interactive Weather Map New forecast layout! Learn more

10-Day Weather Forecast

Advertisements
Track Severe Weather on mobile